sensor_id;sensor_type;location;lat;lon;timestamp;P1;durP1;ratioP1;P2;durP2;ratioP2
49444;SDS011;35323;43.080;-81.378;2023-06-22T00:01:25;15.00;;;9.82;;
49444;SDS011;35323;43.080;-81.378;2023-06-22T00:03:53;10.10;;;8.80;;
49444;SDS011;35323;43.080;-81.378;2023-06-22T00:06:22;12.85;;;9.18;;
49444;SDS011;35323;43.080;-81.378;2023-06-22T00:08:49;10.25;;;9.02;;
49444;SDS011;35323;43.080;-81.378;2023-06-22T00:11:17;10.20;;;9.10;;
49444;SDS011;35323;43.080;-81.378;2023-06-22T00:13:44;12.23;;;10.63;;
49444;SDS011;35323;43.080;-81.378;2023-06-22T00:16:12;12.70;;;10.45;;
49444;SDS011;35323;43.080;-81.378;2023-06-22T00:18:40;13.40;;;11.07;;
49444;SDS011;35323;43.080;-81.378;2023-06-22T00:21:14;12.70;;;10.40;;
49444;SDS011;35323;43.080;-81.378;2023-06-22T00:23:42;14.00;;;11.60;;
49444;SDS011;35323;43.080;-81.378;2023-06-22T00:26:10;12.20;;;10.50;;
49444;SDS011;35323;43.080;-81.378;2023-06-22T00:28:38;13.68;;;11.85;;
49444;SDS011;35323;43.080;-81.378;2023-06-22T00:31:07;11.63;;;10.43;;
49444;SDS011;35323;43.080;-81.378;2023-06-22T00:33:34;12.80;;;11.50;;
49444;SDS011;35323;43.080;-81.378;2023-06-22T00:36:02;12.57;;;10.25;;
49444;SDS011;35323;43.080;-81.378;2023-06-22T00:38:33;14.73;;;10.70;;
49444;SDS011;35323;43.080;-81.378;2023-06-22T00:41:01;13.35;;;12.10;;
49444;SDS011;35323;43.080;-81.378;2023-06-22T00:43:29;14.52;;;12.63;;
49444;SDS011;35323;43.080;-81.378;2023-06-22T00:45:56;15.65;;;12.57;;
49444;SDS011;35323;43.080;-81.378;2023-06-22T00:48:24;14.55;;;12.82;;
49444;SDS011;35323;43.080;-81.378;2023-06-22T00:50:52;18.10;;;14.13;;
49444;SDS011;35323;43.080;-81.378;2023-06-22T00:53:20;13.55;;;12.05;;
49444;SDS011;35323;43.080;-81.378;2023-06-22T00:55:48;14.35;;;11.05;;
49444;SDS011;35323;43.080;-81.378;2023-06-22T00:58:18;14.32;;;12.75;;
49444;SDS011;35323;43.080;-81.378;2023-06-22T01:00:51;13.70;;;12.30;;
49444;SDS011;35323;43.080;-81.378;2023-06-22T01:03:18;13.77;;;12.27;;
49444;SDS011;35323;43.080;-81.378;2023-06-22T01:05:48;16.33;;;14.48;;
49444;SDS011;35323;43.080;-81.378;2023-06-22T01:10:55;21.60;;;16.67;;
49444;SDS011;35323;43.080;-81.378;2023-06-22T01:16:13;22.63;;;18.65;;
49444;SDS011;35323;43.080;-81.378;2023-06-22T01:18:43;19.23;;;17.27;;
49444;SDS011;35323;43.080;-81.378;2023-06-22T01:21:12;20.98;;;17.52;;
49444;SDS011;35323;43.080;-81.378;2023-06-22T01:23:54;20.67;;;17.90;;
49444;SDS011;35323;43.080;-81.378;2023-06-22T01:28:55;19.48;;;16.00;;
49444;SDS011;35323;43.080;-81.378;2023-06-22T01:31:24;23.83;;;20.20;;
49444;SDS011;35323;43.080;-81.378;2023-06-22T01:33:54;24.80;;;20.60;;
49444;SDS011;35323;43.080;-81.378;2023-06-22T01:36:22;24.98;;;20.70;;
49444;SDS011;35323;43.080;-81.378;2023-06-22T01:38:53;22.85;;;19.55;;
49444;SDS011;35323;43.080;-81.378;2023-06-22T01:41:21;24.52;;;21.92;;
49444;SDS011;35323;43.080;-81.378;2023-06-22T01:43:49;28.60;;;25.50;;
49444;SDS011;35323;43.080;-81.378;2023-06-22T01:46:17;31.30;;;26.20;;
49444;SDS011;35323;43.080;-81.378;2023-06-22T01:48:46;29.02;;;23.88;;
49444;SDS011;35323;43.080;-81.378;2023-06-22T01:51:14;28.98;;;25.95;;
49444;SDS011;35323;43.080;-81.378;2023-06-22T01:53:42;33.53;;;26.95;;
49444;SDS011;35323;43.080;-81.378;2023-06-22T01:56:10;40.95;;;27.08;;
49444;SDS011;35323;43.080;-81.378;2023-06-22T01:58:40;36.03;;;25.88;;
49444;SDS011;35323;43.080;-81.378;2023-06-22T02:03:41;27.83;;;24.88;;
49444;SDS011;35323;43.080;-81.378;2023-06-22T02:06:20;30.30;;;26.08;;
49444;SDS011;35323;43.080;-81.378;2023-06-22T02:08:55;31.33;;;27.17;;
49444;SDS011;35323;43.080;-81.378;2023-06-22T02:11:24;32.88;;;27.10;;
49444;SDS011;35323;43.080;-81.378;2023-06-22T02:13:55;34.30;;;26.13;;
49444;SDS011;35323;43.080;-81.378;2023-06-22T02:16:25;27.58;;;24.60;;
49444;SDS011;35323;43.080;-81.378;2023-06-22T02:18:58;29.42;;;24.83;;
49444;SDS011;35323;43.080;-81.378;2023-06-22T02:21:30;31.88;;;26.27;;
49444;SDS011;35323;43.080;-81.378;2023-06-22T02:23:58;31.15;;;27.77;;
49444;SDS011;35323;43.080;-81.378;2023-06-22T02:26:26;31.40;;;27.98;;
49444;SDS011;35323;43.080;-81.378;2023-06-22T02:28:54;33.13;;;27.55;;
49444;SDS011;35323;43.080;-81.378;2023-06-22T02:31:21;29.27;;;26.17;;
49444;SDS011;35323;43.080;-81.378;2023-06-22T02:33:49;38.55;;;27.20;;
49444;SDS011;35323;43.080;-81.378;2023-06-22T02:36:17;29.50;;;25.38;;
49444;SDS011;35323;43.080;-81.378;2023-06-22T02:38:52;34.00;;;28.98;;
49444;SDS011;35323;43.080;-81.378;2023-06-22T02:41:20;30.05;;;25.98;;
49444;SDS011;35323;43.080;-81.378;2023-06-22T02:43:48;33.65;;;25.13;;
49444;SDS011;35323;43.080;-81.378;2023-06-22T02:46:16;31.25;;;24.60;;
49444;SDS011;35323;43.080;-81.378;2023-06-22T02:48:44;28.77;;;23.45;;
49444;SDS011;35323;43.080;-81.378;2023-06-22T02:51:12;32.92;;;27.45;;
49444;SDS011;35323;43.080;-81.378;2023-06-22T02:53:40;29.73;;;25.63;;
49444;SDS011;35323;43.080;-81.378;2023-06-22T02:56:12;26.23;;;23.20;;
49444;SDS011;35323;43.080;-81.378;2023-06-22T02:58:40;31.55;;;23.73;;
49444;SDS011;35323;43.080;-81.378;2023-06-22T03:01:07;28.13;;;23.25;;
49444;SDS011;35323;43.080;-81.378;2023-06-22T03:03:35;24.67;;;20.90;;
49444;SDS011;35323;43.080;-81.378;2023-06-22T03:06:04;30.98;;;23.90;;
49444;SDS011;35323;43.080;-81.378;2023-06-22T03:08:32;26.80;;;22.65;;
49444;SDS011;35323;43.080;-81.378;2023-06-22T03:11:00;27.48;;;23.27;;
49444;SDS011;35323;43.080;-81.378;2023-06-22T03:13:27;24.15;;;20.50;;
49444;SDS011;35323;43.080;-81.378;2023-06-22T03:15:55;24.00;;;20.50;;
49444;SDS011;35323;43.080;-81.378;2023-06-22T03:18:23;28.60;;;22.75;;
49444;SDS011;35323;43.080;-81.378;2023-06-22T03:20:50;24.10;;;21.05;;
49444;SDS011;35323;43.080;-81.378;2023-06-22T03:23:18;24.58;;;21.08;;
49444;SDS011;35323;43.080;-81.378;2023-06-22T03:25:46;27.95;;;20.88;;
49444;SDS011;35323;43.080;-81.378;2023-06-22T03:28:14;22.00;;;18.98;;
49444;SDS011;35323;43.080;-81.378;2023-06-22T03:30:42;23.13;;;20.80;;
49444;SDS011;35323;43.080;-81.378;2023-06-22T03:33:10;28.23;;;22.45;;
49444;SDS011;35323;43.080;-81.378;2023-06-22T03:35:38;22.30;;;19.30;;
49444;SDS011;35323;43.080;-81.378;2023-06-22T03:38:06;26.10;;;20.27;;
49444;SDS011;35323;43.080;-81.378;2023-06-22T03:40:34;29.75;;;18.42;;
49444;SDS011;35323;43.080;-81.378;2023-06-22T03:43:01;22.58;;;19.50;;
49444;SDS011;35323;43.080;-81.378;2023-06-22T03:45:29;20.25;;;16.45;;
49444;SDS011;35323;43.080;-81.378;2023-06-22T03:47:57;22.80;;;17.85;;
49444;SDS011;35323;43.080;-81.378;2023-06-22T03:50:24;20.55;;;15.90;;
49444;SDS011;35323;43.080;-81.378;2023-06-22T03:52:53;18.08;;;15.20;;
49444;SDS011;35323;43.080;-81.378;2023-06-22T03:55:21;19.55;;;16.60;;
49444;SDS011;35323;43.080;-81.378;2023-06-22T03:57:48;19.15;;;16.52;;
49444;SDS011;35323;43.080;-81.378;2023-06-22T04:00:16;17.10;;;13.05;;
49444;SDS011;35323;43.080;-81.378;2023-06-22T04:02:47;18.27;;;13.98;;
49444;SDS011;35323;43.080;-81.378;2023-06-22T04:05:15;18.27;;;14.73;;
49444;SDS011;35323;43.080;-81.378;2023-06-22T04:07:46;19.25;;;14.15;;
49444;SDS011;35323;43.080;-81.378;2023-06-22T04:10:13;19.10;;;13.60;;
49444;SDS011;35323;43.080;-81.378;2023-06-22T04:12:43;16.10;;;14.40;;
49444;SDS011;35323;43.080;-81.378;2023-06-22T04:15:11;16.58;;;12.70;;
49444;SDS011;35323;43.080;-81.378;2023-06-22T04:17:41;16.42;;;13.52;;
49444;SDS011;35323;43.080;-81.378;2023-06-22T04:20:09;15.13;;;12.43;;
49444;SDS011;35323;43.080;-81.378;2023-06-22T04:22:39;16.13;;;12.52;;
49444;SDS011;35323;43.080;-81.378;2023-06-22T04:25:08;14.25;;;10.43;;
49444;SDS011;35323;43.080;-81.378;2023-06-22T04:27:38;11.98;;;8.82;;
49444;SDS011;35323;43.080;-81.378;2023-06-22T04:30:09;16.17;;;9.32;;
49444;SDS011;35323;43.080;-81.378;2023-06-22T04:32:37;12.77;;;10.18;;
49444;SDS011;35323;43.080;-81.378;2023-06-22T04:35:06;11.57;;;9.65;;
49444;SDS011;35323;43.080;-81.378;2023-06-22T04:37:34;9.90;;;9.00;;
49444;SDS011;35323;43.080;-81.378;2023-06-22T04:40:02;9.75;;;8.23;;
49444;SDS011;35323;43.080;-81.378;2023-06-22T04:42:33;11.60;;;7.57;;
49444;SDS011;35323;43.080;-81.378;2023-06-22T04:45:01;13.02;;;9.75;;
49444;SDS011;35323;43.080;-81.378;2023-06-22T04:47:28;9.68;;;8.35;;
49444;SDS011;35323;43.080;-81.378;2023-06-22T04:49:58;11.48;;;9.23;;
49444;SDS011;35323;43.080;-81.378;2023-06-22T04:52:26;9.27;;;8.27;;
49444;SDS011;35323;43.080;-81.378;2023-06-22T04:54:54;9.90;;;8.95;;
49444;SDS011;35323;43.080;-81.378;2023-06-22T04:57:27;11.90;;;8.82;;
49444;SDS011;35323;43.080;-81.378;2023-06-22T04:59:59;8.88;;;7.53;;
49444;SDS011;35323;43.080;-81.378;2023-06-22T05:02:47;11.10;;;9.07;;
49444;SDS011;35323;43.080;-81.378;2023-06-22T05:05:15;10.73;;;8.00;;
49444;SDS011;35323;43.080;-81.378;2023-06-22T05:07:44;9.85;;;7.82;;
49444;SDS011;35323;43.080;-81.378;2023-06-22T05:10:12;8.65;;;7.68;;
49444;SDS011;35323;43.080;-81.378;2023-06-22T05:12:40;8.85;;;8.00;;
49444;SDS011;35323;43.080;-81.378;2023-06-22T05:15:08;8.80;;;7.22;;
49444;SDS011;35323;43.080;-81.378;2023-06-22T05:17:36;9.45;;;7.20;;
49444;SDS011;35323;43.080;-81.378;2023-06-22T05:20:10;12.43;;;8.20;;
49444;SDS011;35323;43.080;-81.378;2023-06-22T05:22:39;10.95;;;7.85;;
49444;SDS011;35323;43.080;-81.378;2023-06-22T05:25:08;8.82;;;7.35;;
49444;SDS011;35323;43.080;-81.378;2023-06-22T05:27:36;10.82;;;6.95;;
49444;SDS011;35323;43.080;-81.378;2023-06-22T05:30:07;8.38;;;6.57;;
49444;SDS011;35323;43.080;-81.378;2023-06-22T05:32:38;10.20;;;7.53;;
49444;SDS011;35323;43.080;-81.378;2023-06-22T05:35:06;7.55;;;6.60;;
49444;SDS011;35323;43.080;-81.378;2023-06-22T05:37:34;9.57;;;7.88;;
49444;SDS011;35323;43.080;-81.378;2023-06-22T05:40:02;10.35;;;8.48;;
49444;SDS011;35323;43.080;-81.378;2023-06-22T05:42:30;9.15;;;7.88;;
49444;SDS011;35323;43.080;-81.378;2023-06-22T05:44:57;8.68;;;7.03;;
49444;SDS011;35323;43.080;-81.378;2023-06-22T05:47:26;10.50;;;7.65;;
49444;SDS011;35323;43.080;-81.378;2023-06-22T05:49:53;11.00;;;7.88;;
49444;SDS011;35323;43.080;-81.378;2023-06-22T05:52:21;11.48;;;7.07;;
49444;SDS011;35323;43.080;-81.378;2023-06-22T05:54:49;12.88;;;7.57;;
49444;SDS011;35323;43.080;-81.378;2023-06-22T05:57:17;12.43;;;8.43;;
49444;SDS011;35323;43.080;-81.378;2023-06-22T05:59:44;9.10;;;7.63;;
49444;SDS011;35323;43.080;-81.378;2023-06-22T06:02:12;9.00;;;7.22;;
49444;SDS011;35323;43.080;-81.378;2023-06-22T06:04:40;9.00;;;6.88;;
49444;SDS011;35323;43.080;-81.378;2023-06-22T06:07:08;9.95;;;7.78;;
49444;SDS011;35323;43.080;-81.378;2023-06-22T06:09:36;11.73;;;9.40;;
49444;SDS011;35323;43.080;-81.378;2023-06-22T06:12:04;9.23;;;7.47;;
49444;SDS011;35323;43.080;-81.378;2023-06-22T06:14:32;10.32;;;6.90;;
49444;SDS011;35323;43.080;-81.378;2023-06-22T06:17:00;8.23;;;6.72;;
49444;SDS011;35323;43.080;-81.378;2023-06-22T06:19:28;9.70;;;8.10;;
49444;SDS011;35323;43.080;-81.378;2023-06-22T06:21:56;9.27;;;8.20;;
49444;SDS011;35323;43.080;-81.378;2023-06-22T06:24:24;7.80;;;6.90;;
49444;SDS011;35323;43.080;-81.378;2023-06-22T06:26:51;10.43;;;7.90;;
49444;SDS011;35323;43.080;-81.378;2023-06-22T06:29:19;8.73;;;7.47;;
49444;SDS011;35323;43.080;-81.378;2023-06-22T06:31:46;7.63;;;6.63;;
49444;SDS011;35323;43.080;-81.378;2023-06-22T06:34:16;10.43;;;8.65;;
49444;SDS011;35323;43.080;-81.378;2023-06-22T06:36:44;13.07;;;7.50;;
49444;SDS011;35323;43.080;-81.378;2023-06-22T06:39:12;7.05;;;6.05;;
49444;SDS011;35323;43.080;-81.378;2023-06-22T06:41:40;7.20;;;6.50;;
49444;SDS011;35323;43.080;-81.378;2023-06-22T06:44:08;10.65;;;6.93;;
49444;SDS011;35323;43.080;-81.378;2023-06-22T06:46:35;8.80;;;7.88;;
49444;SDS011;35323;43.080;-81.378;2023-06-22T06:49:06;8.77;;;7.82;;
49444;SDS011;35323;43.080;-81.378;2023-06-22T06:51:33;10.50;;;7.68;;
49444;SDS011;35323;43.080;-81.378;2023-06-22T06:54:01;8.77;;;5.68;;
49444;SDS011;35323;43.080;-81.378;2023-06-22T06:56:30;8.25;;;7.38;;
49444;SDS011;35323;43.080;-81.378;2023-06-22T06:59:00;13.60;;;9.05;;
49444;SDS011;35323;43.080;-81.378;2023-06-22T07:01:29;8.27;;;6.78;;
49444;SDS011;35323;43.080;-81.378;2023-06-22T07:04:03;9.23;;;8.25;;
49444;SDS011;35323;43.080;-81.378;2023-06-22T07:06:31;10.75;;;6.93;;
49444;SDS011;35323;43.080;-81.378;2023-06-22T07:09:00;8.77;;;7.10;;
49444;SDS011;35323;43.080;-81.378;2023-06-22T07:11:28;10.32;;;8.13;;
49444;SDS011;35323;43.080;-81.378;2023-06-22T07:13:56;8.15;;;6.97;;
49444;SDS011;35323;43.080;-81.378;2023-06-22T07:16:23;9.40;;;7.20;;
49444;SDS011;35323;43.080;-81.378;2023-06-22T07:18:52;8.38;;;7.55;;
49444;SDS011;35323;43.080;-81.378;2023-06-22T07:21:20;7.85;;;6.45;;
49444;SDS011;35323;43.080;-81.378;2023-06-22T07:23:48;9.68;;;7.85;;
49444;SDS011;35323;43.080;-81.378;2023-06-22T07:26:15;10.00;;;7.68;;
49444;SDS011;35323;43.080;-81.378;2023-06-22T07:28:44;9.23;;;7.30;;
49444;SDS011;35323;43.080;-81.378;2023-06-22T07:31:11;10.48;;;8.13;;
49444;SDS011;35323;43.080;-81.378;2023-06-22T07:33:39;8.43;;;7.72;;
49444;SDS011;35323;43.080;-81.378;2023-06-22T07:36:07;7.97;;;6.70;;
49444;SDS011;35323;43.080;-81.378;2023-06-22T07:38:35;8.75;;;6.05;;
49444;SDS011;35323;43.080;-81.378;2023-06-22T07:41:02;9.20;;;7.82;;
49444;SDS011;35323;43.080;-81.378;2023-06-22T07:43:32;10.57;;;6.53;;
49444;SDS011;35323;43.080;-81.378;2023-06-22T07:46:04;8.27;;;6.65;;
49444;SDS011;35323;43.080;-81.378;2023-06-22T07:48:36;9.75;;;7.60;;
49444;SDS011;35323;43.080;-81.378;2023-06-22T07:51:04;7.95;;;7.13;;
49444;SDS011;35323;43.080;-81.378;2023-06-22T07:53:33;10.75;;;7.20;;
49444;SDS011;35323;43.080;-81.378;2023-06-22T07:56:01;11.65;;;8.98;;
49444;SDS011;35323;43.080;-81.378;2023-06-22T08:01:01;10.43;;;6.70;;
49444;SDS011;35323;43.080;-81.378;2023-06-22T08:03:29;15.38;;;9.00;;
49444;SDS011;35323;43.080;-81.378;2023-06-22T08:05:57;9.85;;;8.30;;
49444;SDS011;35323;43.080;-81.378;2023-06-22T08:08:25;9.13;;;6.78;;
49444;SDS011;35323;43.080;-81.378;2023-06-22T08:10:53;9.93;;;6.82;;
49444;SDS011;35323;43.080;-81.378;2023-06-22T08:13:20;8.07;;;6.68;;
49444;SDS011;35323;43.080;-81.378;2023-06-22T08:15:48;8.57;;;7.30;;
49444;SDS011;35323;43.080;-81.378;2023-06-22T08:18:19;12.73;;;7.50;;
49444;SDS011;35323;43.080;-81.378;2023-06-22T08:20:47;9.90;;;6.95;;
49444;SDS011;35323;43.080;-81.378;2023-06-22T08:23:15;10.82;;;7.80;;
49444;SDS011;35323;43.080;-81.378;2023-06-22T08:25:42;9.52;;;8.13;;
49444;SDS011;35323;43.080;-81.378;2023-06-22T08:28:10;10.73;;;7.43;;
49444;SDS011;35323;43.080;-81.378;2023-06-22T08:30:38;7.63;;;6.72;;
49444;SDS011;35323;43.080;-81.378;2023-06-22T08:33:06;11.10;;;6.93;;
49444;SDS011;35323;43.080;-81.378;2023-06-22T08:35:33;11.68;;;7.88;;
49444;SDS011;35323;43.080;-81.378;2023-06-22T08:38:01;11.18;;;7.28;;
49444;SDS011;35323;43.080;-81.378;2023-06-22T08:40:29;9.60;;;7.28;;
49444;SDS011;35323;43.080;-81.378;2023-06-22T08:42:57;15.77;;;8.30;;
49444;SDS011;35323;43.080;-81.378;2023-06-22T08:45:24;10.70;;;7.25;;
49444;SDS011;35323;43.080;-81.378;2023-06-22T08:47:54;12.68;;;8.95;;
49444;SDS011;35323;43.080;-81.378;2023-06-22T08:50:21;10.52;;;8.20;;
49444;SDS011;35323;43.080;-81.378;2023-06-22T08:52:49;12.85;;;7.60;;
49444;SDS011;35323;43.080;-81.378;2023-06-22T08:55:17;10.85;;;7.07;;
49444;SDS011;35323;43.080;-81.378;2023-06-22T08:57:44;11.75;;;7.32;;
49444;SDS011;35323;43.080;-81.378;2023-06-22T09:00:12;8.35;;;7.50;;
49444;SDS011;35323;43.080;-81.378;2023-06-22T09:02:44;12.70;;;8.80;;
49444;SDS011;35323;43.080;-81.378;2023-06-22T09:05:12;10.38;;;8.10;;
49444;SDS011;35323;43.080;-81.378;2023-06-22T09:07:40;13.90;;;7.43;;
49444;SDS011;35323;43.080;-81.378;2023-06-22T09:10:08;10.00;;;7.38;;
49444;SDS011;35323;43.080;-81.378;2023-06-22T09:12:36;12.27;;;8.68;;
49444;SDS011;35323;43.080;-81.378;2023-06-22T09:15:05;12.15;;;8.48;;
49444;SDS011;35323;43.080;-81.378;2023-06-22T09:17:40;10.68;;;7.85;;
49444;SDS011;35323;43.080;-81.378;2023-06-22T09:20:08;10.63;;;8.52;;
49444;SDS011;35323;43.080;-81.378;2023-06-22T09:22:38;8.73;;;7.22;;
49444;SDS011;35323;43.080;-81.378;2023-06-22T09:25:06;10.07;;;7.78;;
49444;SDS011;35323;43.080;-81.378;2023-06-22T09:27:34;9.90;;;6.57;;
49444;SDS011;35323;43.080;-81.378;2023-06-22T09:30:02;9.18;;;6.55;;
49444;SDS011;35323;43.080;-81.378;2023-06-22T09:32:30;16.58;;;8.05;;
49444;SDS011;35323;43.080;-81.378;2023-06-22T09:35:01;15.98;;;9.02;;
49444;SDS011;35323;43.080;-81.378;2023-06-22T09:37:30;19.33;;;9.95;;
49444;SDS011;35323;43.080;-81.378;2023-06-22T09:39:57;15.77;;;10.00;;
49444;SDS011;35323;43.080;-81.378;2023-06-22T09:42:25;11.50;;;8.63;;
49444;SDS011;35323;43.080;-81.378;2023-06-22T09:44:53;13.15;;;8.23;;
49444;SDS011;35323;43.080;-81.378;2023-06-22T09:47:20;13.52;;;9.00;;
49444;SDS011;35323;43.080;-81.378;2023-06-22T09:49:49;10.38;;;9.15;;
49444;SDS011;35323;43.080;-81.378;2023-06-22T09:52:17;12.95;;;8.23;;
49444;SDS011;35323;43.080;-81.378;2023-06-22T09:54:45;15.10;;;9.07;;
49444;SDS011;35323;43.080;-81.378;2023-06-22T09:57:13;18.30;;;10.77;;
49444;SDS011;35323;43.080;-81.378;2023-06-22T09:59:41;18.52;;;8.35;;
49444;SDS011;35323;43.080;-81.378;2023-06-22T10:02:09;13.57;;;9.20;;
49444;SDS011;35323;43.080;-81.378;2023-06-22T10:04:38;12.25;;;8.05;;
49444;SDS011;35323;43.080;-81.378;2023-06-22T10:07:07;13.75;;;7.25;;
49444;SDS011;35323;43.080;-81.378;2023-06-22T10:09:35;13.52;;;7.47;;
49444;SDS011;35323;43.080;-81.378;2023-06-22T10:12:03;11.20;;;8.50;;
49444;SDS011;35323;43.080;-81.378;2023-06-22T10:14:31;12.07;;;8.60;;
49444;SDS011;35323;43.080;-81.378;2023-06-22T10:16:59;9.85;;;8.02;;
49444;SDS011;35323;43.080;-81.378;2023-06-22T10:19:27;13.55;;;7.63;;
49444;SDS011;35323;43.080;-81.378;2023-06-22T10:21:55;13.25;;;9.25;;
49444;SDS011;35323;43.080;-81.378;2023-06-22T10:24:23;8.48;;;7.40;;
49444;SDS011;35323;43.080;-81.378;2023-06-22T10:26:53;15.00;;;8.45;;
49444;SDS011;35323;43.080;-81.378;2023-06-22T10:29:22;10.45;;;9.38;;
49444;SDS011;35323;43.080;-81.378;2023-06-22T10:31:49;13.73;;;8.13;;
49444;SDS011;35323;43.080;-81.378;2023-06-22T10:34:17;13.98;;;8.35;;
49444;SDS011;35323;43.080;-81.378;2023-06-22T10:36:45;10.38;;;7.75;;
49444;SDS011;35323;43.080;-81.378;2023-06-22T10:39:15;9.65;;;7.03;;
49444;SDS011;35323;43.080;-81.378;2023-06-22T10:41:43;9.18;;;8.05;;
49444;SDS011;35323;43.080;-81.378;2023-06-22T10:44:10;14.40;;;9.05;;
49444;SDS011;35323;43.080;-81.378;2023-06-22T10:46:39;13.73;;;7.57;;
49444;SDS011;35323;43.080;-81.378;2023-06-22T10:49:06;14.55;;;10.15;;
49444;SDS011;35323;43.080;-81.378;2023-06-22T10:51:34;12.00;;;8.05;;
49444;SDS011;35323;43.080;-81.378;2023-06-22T10:54:02;13.38;;;8.70;;
49444;SDS011;35323;43.080;-81.378;2023-06-22T10:56:32;13.43;;;8.68;;
49444;SDS011;35323;43.080;-81.378;2023-06-22T10:59:01;14.18;;;9.27;;
49444;SDS011;35323;43.080;-81.378;2023-06-22T11:01:29;12.75;;;9.00;;
49444;SDS011;35323;43.080;-81.378;2023-06-22T11:04:03;11.05;;;9.30;;
49444;SDS011;35323;43.080;-81.378;2023-06-22T11:06:32;15.10;;;8.27;;
49444;SDS011;35323;43.080;-81.378;2023-06-22T11:09:00;13.95;;;9.15;;
49444;SDS011;35323;43.080;-81.378;2023-06-22T11:11:47;14.57;;;7.70;;
49444;SDS011;35323;43.080;-81.378;2023-06-22T11:14:16;19.98;;;10.15;;
49444;SDS011;35323;43.080;-81.378;2023-06-22T11:16:44;11.70;;;8.68;;
49444;SDS011;35323;43.080;-81.378;2023-06-22T11:19:13;16.35;;;9.00;;
49444;SDS011;35323;43.080;-81.378;2023-06-22T11:21:41;14.00;;;9.75;;
49444;SDS011;35323;43.080;-81.378;2023-06-22T11:24:09;10.30;;;8.07;;
49444;SDS011;35323;43.080;-81.378;2023-06-22T11:26:37;12.93;;;8.65;;
49444;SDS011;35323;43.080;-81.378;2023-06-22T11:29:04;16.25;;;10.43;;
49444;SDS011;35323;43.080;-81.378;2023-06-22T11:31:32;10.23;;;7.68;;
49444;SDS011;35323;43.080;-81.378;2023-06-22T11:34:00;17.58;;;8.43;;
49444;SDS011;35323;43.080;-81.378;2023-06-22T11:36:29;19.38;;;8.07;;
49444;SDS011;35323;43.080;-81.378;2023-06-22T11:38:59;11.80;;;8.07;;
49444;SDS011;35323;43.080;-81.378;2023-06-22T11:41:27;10.25;;;8.55;;
49444;SDS011;35323;43.080;-81.378;2023-06-22T11:43:55;10.27;;;7.53;;
49444;SDS011;35323;43.080;-81.378;2023-06-22T11:46:22;12.38;;;9.15;;
49444;SDS011;35323;43.080;-81.378;2023-06-22T11:48:50;12.80;;;8.63;;
49444;SDS011;35323;43.080;-81.378;2023-06-22T11:51:18;16.20;;;10.77;;
49444;SDS011;35323;43.080;-81.378;2023-06-22T11:53:45;13.77;;;7.80;;
49444;SDS011;35323;43.080;-81.378;2023-06-22T11:56:13;15.35;;;8.32;;
49444;SDS011;35323;43.080;-81.378;2023-06-22T11:58:41;13.48;;;8.02;;
49444;SDS011;35323;43.080;-81.378;2023-06-22T12:01:09;18.83;;;10.20;;
49444;SDS011;35323;43.080;-81.378;2023-06-22T12:03:37;12.50;;;9.15;;
49444;SDS011;35323;43.080;-81.378;2023-06-22T12:06:05;11.85;;;8.45;;
49444;SDS011;35323;43.080;-81.378;2023-06-22T12:08:33;9.98;;;8.32;;
49444;SDS011;35323;43.080;-81.378;2023-06-22T12:11:01;12.70;;;7.75;;
49444;SDS011;35323;43.080;-81.378;2023-06-22T12:13:28;11.85;;;7.85;;
49444;SDS011;35323;43.080;-81.378;2023-06-22T12:15:56;13.55;;;8.02;;
49444;SDS011;35323;43.080;-81.378;2023-06-22T12:18:24;12.05;;;8.32;;
49444;SDS011;35323;43.080;-81.378;2023-06-22T12:20:51;12.02;;;7.70;;
49444;SDS011;35323;43.080;-81.378;2023-06-22T12:23:19;14.32;;;7.38;;
49444;SDS011;35323;43.080;-81.378;2023-06-22T12:25:46;12.60;;;7.75;;
49444;SDS011;35323;43.080;-81.378;2023-06-22T12:28:14;12.27;;;8.10;;
49444;SDS011;35323;43.080;-81.378;2023-06-22T12:30:42;15.07;;;7.22;;
49444;SDS011;35323;43.080;-81.378;2023-06-22T12:33:10;21.63;;;9.10;;
49444;SDS011;35323;43.080;-81.378;2023-06-22T12:35:38;9.98;;;6.72;;
49444;SDS011;35323;43.080;-81.378;2023-06-22T12:38:06;8.63;;;6.93;;
49444;SDS011;35323;43.080;-81.378;2023-06-22T12:40:35;11.38;;;8.02;;
49444;SDS011;35323;43.080;-81.378;2023-06-22T12:43:03;7.00;;;6.30;;
49444;SDS011;35323;43.080;-81.378;2023-06-22T12:45:30;9.68;;;7.25;;
49444;SDS011;35323;43.080;-81.378;2023-06-22T12:48:00;13.27;;;8.98;;
49444;SDS011;35323;43.080;-81.378;2023-06-22T12:50:28;11.80;;;7.45;;
49444;SDS011;35323;43.080;-81.378;2023-06-22T12:52:56;20.88;;;8.10;;
49444;SDS011;35323;43.080;-81.378;2023-06-22T12:55:24;13.38;;;6.93;;
49444;SDS011;35323;43.080;-81.378;2023-06-22T12:57:52;11.32;;;6.93;;
49444;SDS011;35323;43.080;-81.378;2023-06-22T13:00:20;9.70;;;6.18;;
49444;SDS011;35323;43.080;-81.378;2023-06-22T13:02:48;13.73;;;7.35;;
49444;SDS011;35323;43.080;-81.378;2023-06-22T13:05:15;12.25;;;8.15;;
49444;SDS011;35323;43.080;-81.378;2023-06-22T13:07:43;15.63;;;7.75;;
49444;SDS011;35323;43.080;-81.378;2023-06-22T13:10:11;18.33;;;8.23;;
49444;SDS011;35323;43.080;-81.378;2023-06-22T13:12:41;8.90;;;5.78;;
49444;SDS011;35323;43.080;-81.378;2023-06-22T13:15:09;14.98;;;6.22;;
49444;SDS011;35323;43.080;-81.378;2023-06-22T13:17:37;9.35;;;7.18;;
49444;SDS011;35323;43.080;-81.378;2023-06-22T13:20:05;12.88;;;8.48;;
49444;SDS011;35323;43.080;-81.378;2023-06-22T13:22:34;8.82;;;6.20;;
49444;SDS011;35323;43.080;-81.378;2023-06-22T13:25:07;8.00;;;7.07;;
49444;SDS011;35323;43.080;-81.378;2023-06-22T13:27:40;10.57;;;6.88;;
49444;SDS011;35323;43.080;-81.378;2023-06-22T13:30:08;10.68;;;5.38;;
49444;SDS011;35323;43.080;-81.378;2023-06-22T13:32:39;10.70;;;7.97;;
49444;SDS011;35323;43.080;-81.378;2023-06-22T13:35:12;11.52;;;6.15;;
49444;SDS011;35323;43.080;-81.378;2023-06-22T13:37:40;8.65;;;6.82;;
49444;SDS011;35323;43.080;-81.378;2023-06-22T13:40:08;7.80;;;6.07;;
49444;SDS011;35323;43.080;-81.378;2023-06-22T13:42:35;8.48;;;5.85;;
49444;SDS011;35323;43.080;-81.378;2023-06-22T13:45:04;11.18;;;6.88;;
49444;SDS011;35323;43.080;-81.378;2023-06-22T13:47:31;7.70;;;5.03;;
49444;SDS011;35323;43.080;-81.378;2023-06-22T13:49:59;7.70;;;5.63;;
49444;SDS011;35323;43.080;-81.378;2023-06-22T13:52:27;6.43;;;5.18;;
49444;SDS011;35323;43.080;-81.378;2023-06-22T13:54:55;9.32;;;6.03;;
49444;SDS011;35323;43.080;-81.378;2023-06-22T13:57:22;8.13;;;5.97;;
49444;SDS011;35323;43.080;-81.378;2023-06-22T13:59:50;7.07;;;5.47;;
49444;SDS011;35323;43.080;-81.378;2023-06-22T14:02:18;8.85;;;4.70;;
49444;SDS011;35323;43.080;-81.378;2023-06-22T14:04:45;6.60;;;3.83;;
49444;SDS011;35323;43.080;-81.378;2023-06-22T14:07:13;8.65;;;3.97;;
49444;SDS011;35323;43.080;-81.378;2023-06-22T14:09:41;8.65;;;4.43;;
49444;SDS011;35323;43.080;-81.378;2023-06-22T14:12:10;5.53;;;4.38;;
49444;SDS011;35323;43.080;-81.378;2023-06-22T14:14:38;7.28;;;5.32;;
49444;SDS011;35323;43.080;-81.378;2023-06-22T14:17:05;5.57;;;4.32;;
49444;SDS011;35323;43.080;-81.378;2023-06-22T14:19:33;5.40;;;4.90;;
49444;SDS011;35323;43.080;-81.378;2023-06-22T14:22:01;5.47;;;4.35;;
49444;SDS011;35323;43.080;-81.378;2023-06-22T14:24:28;7.25;;;5.93;;
49444;SDS011;35323;43.080;-81.378;2023-06-22T14:26:56;8.00;;;4.55;;
49444;SDS011;35323;43.080;-81.378;2023-06-22T14:29:25;4.70;;;4.22;;